Perry, FL

10:33 PM EDT on September 02, 2015 (GMT -0400)
Perry | | Change Station
CLOSE
Current Station
Airport
Location: Perry,
Elevation: 43 ft
Nearby Weather Stations

Elev 43 ft 30.07 °N, 83.57 °W | Updated 18 minutes ago

Partly Cloudy
Partly Cloudy
79 °F
Feels Like 79 °F
N
0
Wind Variable Wind from North

Today
High -- | Low -- °F
--% Chance of Precip.
Yesterday
High -- | Low -- °F
Precip. -- in
7:11 AM 7:55 PM
Waning Gibbous, 75% visible
Pressure 30.02 in
Visibility 7.0 miles
Clouds Clear
Dew Point 77 °F
Humidity 92%
Rainfall 0.27 in
Snow Depth Not available.
UV 0 out of 12
Pollen 6.60 out of 12
Air Quality Not available.
Flu Activity Not available.
METAR K40J 030215Z AUTO 00000KT 7SM CLR 26/25 A3002 RMK AO2 T02620248
Pressure 30.02 in
Visibility 7.0 miles
Clouds Clear
Dew Point 77 °F
Humidity 92%
Rainfall 0.27 in
Snow Depth Not available.
UV 0 out of 12
Pollen 6.60 out of 12
Air Quality Not available.
Flu Activity Not available.
METAR K40J 030215Z AUTO 00000KT 7SM CLR 26/25 A3002 RMK AO2 T02620248

10-Day Weather Forecast

×

Almanac

Astronomy

Sep. 02, 2015 Rise Set
Actual Time
Civil Twilight
Nautical Twilight
Astronomical Twilight
Moon
Length of Visible Light
Length of Day
Tomorrow will be .
, % of the Moon is Illuminated

Today's Extremes

State Highs State Lows

Community

WunderPhotos

Upload Photos

1,851,879 photos uploaded!

WunderBlogs® & News

Nearby

Air Quality

  Air Quality AQ Index Pollutant
Not available.

Snow Depth

Station Depth Elevation

Earthquake Activity

City Distance Mag. Time & Date
Minimum magnitude displayed is 2.5.

Coastal Water Temperatures

Place Temperature

Stations

Nearby Weather Stations

Station Location Temp. Windchill Dew Point Humidity Wind Precip. Elev Updated Type